Terminal Aerodrome Forecast
Issued by NWS Quad Cities IA IL

Home | Current Version | Previous Version | Text Only | Print | Product List | Glossary Off
Versions: 1 2 3 4 5 6 7 8 9 10 11 12 13 14 15 16 17 18 19 20 21

000
FTUS43 KDVN 281100
TAFDBQ
TAF
KDBQ 281132Z 2812/2912 15005KT P6SM BKN250
     FM281500 17008KT P6SM SCT250
     FM290800 18015KT P6SM SCT150=

USA.gov is the U.S. government's official web portal to all federal, state and local government web resources and services.